Time;durP1;ratioP1;P1;durP2;ratioP2;P2;SDS_P1;SDS_P2;PMS_P1;PMS_P2;Temp;Humidity;BMP_temperature;BMP_pressure;BME280_temperature;BME280_humidity;BME280_pressure;Samples;Min_cycle;Max_cycle;Signal;HPM_P1;HPM_P2
2023/01/13 00:01:25;;;;;;;17.27;4.00;;;;;;;8.07;100.00;100371.63;5050763;28;20033;-83
2023/01/13 00:03:57;;;;;;;19.27;4.00;;;;;;;8.07;100.00;100381.25;5015829;28;20115;-84
2023/01/13 00:06:28;;;;;;;17.35;4.15;;;;;;;8.03;100.00;100380.66;5016659;28;20044;-79
2023/01/13 00:08:53;;;;;;;18.13;3.78;;;;;;;7.97;100.00;100373.19;5031076;28;20127;-84
2023/01/13 00:11:20;;;;;;;20.92;3.88;;;;;;;7.93;100.00;100371.75;5031016;28;20502;-84
2023/01/13 00:13:46;;;;;;;20.30;4.10;;;;;;;7.92;100.00;100377.94;5029805;28;20056;-84
2023/01/13 00:16:16;;;;;;;18.35;3.97;;;;;;;7.91;100.00;100389.34;5044748;28;20501;-84
2023/01/13 00:18:43;;;;;;;22.20;4.80;;;;;;;7.88;100.00;100363.38;5024011;28;20040;-84
2023/01/13 00:21:24;;;;;;;21.73;4.57;;;;;;;7.85;100.00;100363.59;5048452;28;20068;-84
2023/01/13 00:23:54;;;;;;;21.80;4.95;;;;;;;7.84;100.00;100361.91;5042855;28;20040;-84
2023/01/13 00:26:24;;;;;;;20.83;4.90;;;;;;;7.80;100.00;100349.97;5037235;28;20041;-84
2023/01/13 00:28:58;;;;;;;25.75;4.93;;;;;;;7.79;100.00;100358.78;5009883;28;20079;-80
2023/01/13 00:31:23;;;;;;;25.10;5.10;;;;;;;7.76;100.00;100348.53;5051588;28;20056;-84
2023/01/13 00:33:49;;;;;;;21.13;4.57;;;;;;;7.73;100.00;100348.75;5043643;28;20474;-84
2023/01/13 00:36:17;;;;;;;25.50;5.45;;;;;;;7.73;100.00;100348.75;5049744;28;20443;-84
2023/01/13 00:38:43;;;;;;;19.90;4.47;;;;;;;7.68;100.00;100332.53;5052327;28;20037;-84
2023/01/13 00:41:14;;;;;;;26.92;5.10;;;;;;;7.63;100.00;100332.84;5033837;28;20711;-84
2023/01/13 00:43:40;;;;;;;27.35;5.15;;;;;;;7.60;100.00;100338.28;5046096;28;20049;-84
2023/01/13 00:46:10;;;;;;;20.08;4.50;;;;;;;7.55;100.00;100335.13;5039845;28;20056;-84
2023/01/13 00:48:36;;;;;;;30.08;5.93;;;;;;;7.54;100.00;100328.22;5035026;28;20097;-83
2023/01/13 00:51:14;;;;;;;23.73;4.95;;;;;;;7.54;100.00;100334.31;5033561;28;20066;-83
2023/01/13 00:53:45;;;;;;;24.98;4.70;;;;;;;7.53;100.00;100332.63;5028947;28;20443;-79
2023/01/13 00:56:15;;;;;;;23.70;4.70;;;;;;;7.51;100.00;100325.84;5048154;28;20393;-80
2023/01/13 00:58:41;;;;;;;24.45;5.10;;;;;;;7.49;100.00;100331.19;5029583;28;20032;-84
2023/01/13 01:01:11;;;;;;;24.52;5.55;;;;;;;7.50;100.00;100332.84;5048602;28;20439;-81
2023/01/13 01:03:37;;;;;;;20.98;4.60;;;;;;;7.47;100.00;100333.06;5037413;28;20038;-84
2023/01/13 01:06:25;;;;;;;26.77;5.00;;;;;;;7.47;100.00;100333.06;5021158;28;20474;-83
2023/01/13 01:08:55;;;;;;;23.58;5.05;;;;;;;7.46;100.00;100339.25;5025731;28;20041;-84
2023/01/13 01:11:23;;;;;;;31.92;5.80;;;;;;;7.43;100.00;100349.09;5044405;28;20033;-81
2023/01/13 01:13:51;;;;;;;26.98;5.38;;;;;;;7.41;100.00;100341.34;5048587;28;20044;-86
2023/01/13 01:16:25;;;;;;;20.75;4.53;;;;;;;7.44;100.00;100346.38;5046263;28;20060;-84
2023/01/13 01:18:52;;;;;;;24.45;4.90;;;;;;;7.52;100.00;100345.81;5040456;28;20131;-83
2023/01/13 01:21:22;;;;;;;29.95;4.90;;;;;;;7.54;100.00;100355.25;5035602;28;20481;-83
2023/01/13 01:23:51;;;;;;;24.20;4.63;;;;;;;7.55;100.00;100340.38;5035232;28;20132;-83
2023/01/13 01:26:22;;;;;;;28.20;5.60;;;;;;;7.57;100.00;100341.09;5010251;28;20029;-83
2023/01/13 01:28:50;;;;;;;22.65;5.18;;;;;;;7.56;100.00;100342.06;5012565;28;20068;-83
2023/01/13 01:31:19;;;;;;;29.73;5.00;;;;;;;7.54;100.00;100334.31;5043521;28;20500;-83
2023/01/13 01:33:50;;;;;;;25.95;5.45;;;;;;;7.54;100.00;100343.94;5047466;28;20367;-84
2023/01/13 01:36:17;;;;;;;26.90;5.43;;;;;;;7.52;100.00;100346.66;5040456;28;20040;-83
2023/01/13 01:38:43;;;;;;;23.40;5.03;;;;;;;7.52;100.00;100338.81;5029751;28;20056;-83
2023/01/13 01:41:14;;;;;;;22.05;4.95;;;;;;;7.52;100.00;100344.03;5026304;28;20102;-83
2023/01/13 01:44:02;;;;;;;30.00;5.20;;;;;;;7.52;100.00;100345.81;5040496;28;20037;-83
2023/01/13 01:46:35;;;;;;;29.15;5.22;;;;;;;7.50;100.00;100340.69;5045540;28;20063;-84
2023/01/13 01:49:21;;;;;;;29.40;6.25;;;;;;;7.49;100.00;100340.81;5015481;28;20057;-85
2023/01/13 01:51:59;;;;;;;29.17;5.88;;;;;;;7.43;100.00;100342.06;5007403;28;20037;-83
2023/01/13 01:54:32;;;;;;;31.73;6.63;;;;;;;7.38;100.00;100338.94;5000513;28;20026;-83
2023/01/13 01:56:58;;;;;;;35.05;7.15;;;;;;;7.36;100.00;100338.22;5027871;28;20494;-83
2023/01/13 01:59:26;;;;;;;33.90;6.38;;;;;;;7.36;100.00;100348.69;5027042;28;20047;-83
2023/01/13 02:01:51;;;;;;;32.55;6.75;;;;;;;7.37;100.00;100352.97;5027409;28;20057;-84
2023/01/13 02:04:25;;;;;;;35.53;6.78;;;;;;;7.34;99.66;100347.94;5022181;28;20131;-83
2023/01/13 02:06:52;;;;;;;35.38;6.45;;;;;;;7.27;100.00;100336.22;5019778;28;20273;-83
2023/01/13 02:09:21;;;;;;;28.58;6.53;;;;;;;7.22;99.68;100339.16;4993914;28;20035;-83
2023/01/13 02:14:32;;;;;;;35.88;7.18;;;;;;;7.19;99.49;100338.50;5028739;28;20040;-80
2023/01/13 02:17:00;;;;;;;35.90;7.00;;;;;;;7.16;100.00;100336.94;5032182;28;20029;-83
2023/01/13 02:19:45;;;;;;;31.55;7.13;;;;;;;7.15;99.52;100334.44;5031484;28;20049;-83
2023/01/13 02:22:16;;;;;;;31.42;6.45;;;;;;;7.13;100.00;100344.16;5004187;28;20064;-82
2023/01/13 02:25:03;;;;;;;32.80;7.73;;;;;;;7.12;99.75;100347.72;5025552;28;20052;-83
2023/01/13 02:27:43;;;;;;;31.80;6.25;;;;;;;7.09;100.00;100350.53;5006836;28;20058;-83
2023/01/13 02:33:14;;;;;;;27.48;6.25;;;;;;;7.05;100.00;100352.53;5027631;28;20045;-79
2023/01/13 02:36:01;;;;;;;35.70;6.65;;;;;;;7.05;100.00;100357.75;5011630;28;20041;-83
2023/01/13 02:39:00;;;;;;;33.38;6.68;;;;;;;7.02;100.00;100352.72;5024227;28;20048;-84
2023/01/13 02:44:50;;;;;;;37.75;7.22;;;;;;;7.03;100.00;100327.41;5018364;28;20045;-83
2023/01/13 02:47:24;;;;;;;32.83;6.57;;;;;;;7.04;100.00;100326.47;5031292;28;20037;-83
2023/01/13 02:49:56;;;;;;;25.95;5.63;;;;;;;7.09;100.00;100327.00;5043183;28;20048;-83
2023/01/13 02:52:30;;;;;;;35.23;6.87;;;;;;;7.13;100.00;100334.53;5041197;28;20401;-83
2023/01/13 02:55:04;;;;;;;31.85;6.82;;;;;;;7.15;100.00;100321.34;5031837;28;20037;-83
2023/01/13 02:57:34;;;;;;;33.08;6.07;;;;;;;7.17;100.00;100320.28;5052167;28;20444;-83
2023/01/13 03:00:01;;;;;;;35.25;6.40;;;;;;;7.17;100.00;100314.22;5011012;28;20040;-83
2023/01/13 03:02:27;;;;;;;31.60;5.88;;;;;;;7.19;100.00;100307.94;5039625;28;20060;-79
2023/01/13 03:04:57;;;;;;;38.47;6.82;;;;;;;7.20;100.00;100303.56;5037450;28;20061;-83
2023/01/13 03:08:01;;;;;;;35.50;6.32;;;;;;;7.24;100.00;100305.03;5015240;28;20041;-80
2023/01/13 03:10:34;;;;;;;25.85;5.55;;;;;;;7.25;100.00;100301.47;5028068;28;20705;-83
2023/01/13 03:13:43;;;;;;;27.60;6.03;;;;;;;7.29;100.00;100308.19;5043118;28;20091;-83
2023/01/13 03:16:29;;;;;;;29.70;5.72;;;;;;;7.33;100.00;100314.88;5034414;28;20116;-84
2023/01/13 03:19:10;;;;;;;31.20;6.57;;;;;;;7.34;100.00;100305.25;5032394;28;20037;-84
2023/01/13 03:22:06;;;;;;;26.95;5.28;;;;;;;7.38;100.00;100297.06;5015338;28;20044;-83
2023/01/13 03:24:43;;;;;;;31.60;5.63;;;;;;;7.42;99.76;100311.59;5011784;28;20133;-83
2023/01/13 03:27:17;;;;;;;29.60;5.50;;;;;;;7.48;99.21;100300.72;5045141;28;20119;-83
2023/01/13 03:29:59;;;;;;;27.90;5.50;;;;;;;7.52;98.51;100303.94;5032511;28;20040;-80
2023/01/13 03:32:33;;;;;;;26.88;4.95;;;;;;;7.55;97.10;100312.41;5049722;28;20394;-79
2023/01/13 03:35:20;;;;;;;18.20;4.20;;;;;;;7.55;97.50;100309.81;5052907;28;20036;-80
2023/01/13 03:37:56;;;;;;;19.17;3.70;;;;;;;7.58;94.33;100298.28;5049480;28;20489;-83
2023/01/13 03:40:29;;;;;;;17.00;3.25;;;;;;;7.62;92.20;100310.22;5049901;28;20107;-83
2023/01/13 03:45:50;;;;;;;11.93;2.63;;;;;;;7.61;91.14;100307.72;5044680;28;20048;-83
2023/01/13 03:48:19;;;;;;;9.77;2.10;;;;;;;7.59;90.60;100309.59;5018520;28;20448;-84
2023/01/13 03:50:50;;;;;;;6.47;1.50;;;;;;;7.55;89.88;100309.81;5019316;28;20037;-83
2023/01/13 03:53:30;;;;;;;4.75;1.30;;;;;;;7.55;90.72;100278.38;5017391;28;20079;-83
2023/01/13 03:56:04;;;;;;;6.95;1.95;;;;;;;7.53;89.99;100288.13;5028335;28;20667;-80
2023/01/13 03:58:34;;;;;;;6.65;1.38;;;;;;;7.52;91.15;100294.31;5041840;28;20048;-83
2023/01/13 04:01:20;;;;;;;8.68;1.40;;;;;;;7.51;91.85;100286.56;5028263;28;20464;-83
2023/01/13 04:03:50;;;;;;;6.93;1.67;;;;;;;7.45;92.61;100292.25;5044880;28;20086;-78
2023/01/13 04:06:21;;;;;;;7.72;1.67;;;;;;;7.43;93.30;100300.19;5045631;28;20037;-83
2023/01/13 04:09:01;;;;;;;7.63;1.80;;;;;;;7.38;93.95;100304.91;5031341;28;20029;-83
2023/01/13 04:11:36;;;;;;;8.00;1.77;;;;;;;7.33;94.34;100299.16;5031323;28;20033;-83
2023/01/13 04:14:10;;;;;;;7.28;2.05;;;;;;;7.28;95.11;100314.34;5015084;28;20045;-83
2023/01/13 04:16:36;;;;;;;11.02;2.00;;;;;;;7.21;96.43;100313.09;5050861;28;20041;-83
2023/01/13 04:19:01;;;;;;;10.25;2.30;;;;;;;7.16;97.81;100316.00;5034772;28;20040;-83
2023/01/13 04:21:28;;;;;;;10.00;2.50;;;;;;;7.12;98.74;100316.31;5030677;28;20512;-83
2023/01/13 04:23:54;;;;;;;13.35;2.78;;;;;;;7.06;99.50;100337.66;5033048;28;20033;-83
2023/01/13 04:26:22;;;;;;;14.40;3.25;;;;;;;7.03;100.00;100330.03;5051212;28;20033;-84
2023/01/13 04:28:48;;;;;;;13.98;2.83;;;;;;;7.03;100.00;100332.66;5031552;28;20127;-84
2023/01/13 04:31:13;;;;;;;12.90;3.10;;;;;;;7.04;100.00;100326.47;5034222;28;20458;-83
2023/01/13 04:33:39;;;;;;;17.25;3.33;;;;;;;7.04;100.00;100329.09;5033427;28;20037;-84
2023/01/13 04:36:05;;;;;;;16.30;3.78;;;;;;;7.01;100.00;100326.69;5028664;28;20123;-83
2023/01/13 04:38:30;;;;;;;16.02;3.28;;;;;;;7.00;100.00;100328.47;5031779;28;20405;-84
2023/01/13 04:40:56;;;;;;;16.00;3.47;;;;;;;7.03;100.00;100332.66;5030011;28;20037;-83
2023/01/13 04:43:22;;;;;;;16.98;3.78;;;;;;;7.01;100.00;100329.31;5031367;28;20045;-83
2023/01/13 04:45:50;;;;;;;20.13;3.83;;;;;;;7.01;100.00;100327.53;5046014;28;20501;-83
2023/01/13 04:48:21;;;;;;;16.80;3.92;;;;;;;7.00;100.00;100330.25;5047737;28;20505;-80
2023/01/13 04:50:46;;;;;;;21.30;3.92;;;;;;;7.03;100.00;100316.97;5041658;28;20037;-83
2023/01/13 04:53:12;;;;;;;17.40;3.75;;;;;;;7.05;100.00;100333.38;5017321;28;20394;-83
2023/01/13 04:55:37;;;;;;;20.50;4.18;;;;;;;7.03;100.00;100316.97;5030549;28;20052;-83
2023/01/13 04:58:08;;;;;;;15.85;4.13;;;;;;;7.03;100.00;100317.78;5043085;28;20060;-84
2023/01/13 05:00:35;;;;;;;21.52;3.90;;;;;;;7.00;100.00;100317.16;5039139;28;20162;-83
2023/01/13 05:03:01;;;;;;;18.08;4.30;;;;;;;6.96;100.00;100308.69;5048175;28;20037;-83
2023/01/13 05:05:28;;;;;;;17.45;3.90;;;;;;;6.95;100.00;100314.03;5018931;28;20025;-83
2023/01/13 05:07:53;;;;;;;16.38;3.80;;;;;;;6.94;100.00;100301.91;5030215;28;20136;-82
2023/01/13 05:10:20;;;;;;;20.10;4.25;;;;;;;6.93;100.00;100302.84;5011167;28;20037;-83
2023/01/13 05:18:15;;;;;;;17.92;4.15;;;;;;;6.90;100.00;100291.63;5010087;28;20133;-84
2023/01/13 05:20:41;;;;;;;19.77;4.00;;;;;;;6.89;100.00;100304.81;5034956;28;20037;-84
2023/01/13 05:25:50;;;;;;;20.60;4.00;;;;;;;6.83;100.00;100315.69;5027549;28;20405;-83
2023/01/13 05:28:16;;;;;;;21.92;4.13;;;;;;;6.83;100.00;100307.84;5030258;28;20029;-83
2023/01/13 05:30:44;;;;;;;21.98;4.60;;;;;;;6.79;100.00;100309.81;5033104;28;20032;-83
2023/01/13 05:33:12;;;;;;;19.38;3.85;;;;;;;6.76;100.00;100309.19;5049149;28;20116;-83
2023/01/13 05:35:39;;;;;;;19.50;3.80;;;;;;;6.78;100.00;100318.59;5047386;28;20037;-83
2023/01/13 05:38:04;;;;;;;16.40;3.60;;;;;;;6.78;100.00;100315.97;5048133;28;20485;-81
2023/01/13 05:43:18;;;;;;;14.05;3.47;;;;;;;6.74;100.00;100327.56;5011009;28;20037;-79
2023/01/13 05:45:49;;;;;;;24.40;4.20;;;;;;;6.73;100.00;100328.53;5013944;28;20055;-84
2023/01/13 05:48:15;;;;;;;18.85;4.05;;;;;;;6.73;100.00;100330.28;5030446;28;20049;-83
2023/01/13 05:50:41;;;;;;;16.77;3.78;;;;;;;6.71;100.00;100338.25;5038541;28;20042;-83
2023/01/13 05:53:06;;;;;;;17.92;3.78;;;;;;;6.69;100.00;100340.13;5044026;28;20043;-83
2023/01/13 05:55:32;;;;;;;15.98;3.38;;;;;;;6.66;100.00;100331.66;5042587;28;20080;-83
2023/01/13 05:57:57;;;;;;;25.67;3.55;;;;;;;6.69;100.00;100340.13;5047137;28;20037;-83
2023/01/13 06:00:23;;;;;;;18.42;3.67;;;;;;;6.68;100.00;100337.59;5018591;28;20052;-83
2023/01/13 06:02:51;;;;;;;20.13;4.00;;;;;;;6.65;100.00;100338.66;5028533;28;20124;-83
2023/01/13 06:05:16;;;;;;;22.80;4.47;;;;;;;6.67;100.00;100349.00;5030441;28;20057;-83
2023/01/13 06:07:41;;;;;;;16.60;4.03;;;;;;;6.63;100.00;100343.16;5027750;28;20061;-83
2023/01/13 06:10:08;;;;;;;17.08;3.67;;;;;;;6.61;100.00;100347.63;5037634;28;20111;-83
2023/01/13 06:12:39;;;;;;;19.45;4.32;;;;;;;6.58;100.00;100343.44;5027874;28;20570;-83
2023/01/13 06:15:05;;;;;;;21.83;4.00;;;;;;;6.59;100.00;100355.56;5046000;28;20028;-80
2023/01/13 06:17:30;;;;;;;17.95;3.88;;;;;;;6.57;100.00;100357.47;5034689;28;20478;-83
2023/01/13 06:19:56;;;;;;;19.05;3.78;;;;;;;6.55;100.00;100361.94;5032203;28;20025;-79
2023/01/13 06:22:31;;;;;;;16.33;3.60;;;;;;;6.54;100.00;100367.28;5046021;28;20722;-83
2023/01/13 06:24:58;;;;;;;18.05;3.92;;;;;;;6.54;100.00;100375.13;5032016;28;20037;-83
2023/01/13 06:27:25;;;;;;;17.38;3.78;;;;;;;6.53;100.00;100371.66;5047857;28;20040;-83
2023/01/13 06:29:51;;;;;;;18.60;3.58;;;;;;;6.52;100.00;100370.00;5047222;28;20040;-82
2023/01/13 06:32:24;;;;;;;18.77;4.15;;;;;;;6.53;100.00;100384.72;5027384;28;20022;-83
2023/01/13 06:35:10;;;;;;;21.33;4.35;;;;;;;6.56;100.00;100378.47;5010489;28;20113;-82
2023/01/13 06:37:36;;;;;;;21.35;4.32;;;;;;;6.58;99.57;100384.44;5028834;28;20401;-82
2023/01/13 06:40:05;;;;;;;17.67;4.05;;;;;;;6.60;99.36;100387.78;5029477;28;20048;-85
2023/01/13 06:45:24;;;;;;;20.80;3.92;;;;;;;6.62;99.12;100385.91;5047304;28;20120;-82
2023/01/13 06:47:49;;;;;;;28.05;5.13;;;;;;;6.63;99.62;100387.59;5031234;28;20505;-82
2023/01/13 06:50:19;;;;;;;20.17;4.13;;;;;;;6.66;99.32;100384.75;5034782;28;20068;-82
2023/01/13 06:52:45;;;;;;;20.15;4.18;;;;;;;6.69;98.59;100387.19;5009996;28;20557;-83
2023/01/13 06:55:13;;;;;;;17.17;4.13;;;;;;;6.71;99.00;100380.06;5038823;28;20036;-81
2023/01/13 06:57:53;;;;;;;21.92;4.50;;;;;;;6.76;99.26;100379.75;5048844;28;20634;-84
2023/01/13 07:00:20;;;;;;;23.10;4.30;;;;;;;6.73;98.04;100378.19;5025436;28;20069;-84
2023/01/13 07:02:45;;;;;;;26.73;5.03;;;;;;;6.76;97.59;100375.38;5035119;28;20037;-82
2023/01/13 07:05:11;;;;;;;20.17;4.40;;;;;;;6.78;96.87;100375.28;5034905;28;20136;-82
2023/01/13 07:07:38;;;;;;;19.73;4.68;;;;;;;6.80;96.88;100383.84;5030417;28;20053;-82
2023/01/13 07:10:04;;;;;;;17.38;4.10;;;;;;;6.80;96.49;100389.91;5045958;28;20516;-82
2023/01/13 07:12:30;;;;;;;21.52;4.53;;;;;;;6.80;95.62;100389.91;5027727;28;20065;-81
2023/01/13 07:17:39;;;;;;;18.90;3.85;;;;;;;6.80;94.99;100402.16;5034129;28;20036;-82
2023/01/13 07:20:05;;;;;;;20.75;4.55;;;;;;;6.79;94.77;100409.16;5039710;28;20025;-84
2023/01/13 07:22:34;;;;;;;19.60;4.25;;;;;;;6.74;94.69;100411.25;5032661;28;20061;-84
2023/01/13 07:25:03;;;;;;;14.88;3.55;;;;;;;6.71;95.33;100406.22;5031553;28;20025;-84
2023/01/13 07:27:31;;;;;;;23.42;4.35;;;;;;;6.68;94.62;100403.81;5023798;28;20037;-84
2023/01/13 07:30:04;;;;;;;18.67;4.18;;;;;;;6.68;94.68;100393.34;5049168;28;20037;-82
2023/01/13 07:32:32;;;;;;;23.15;4.68;;;;;;;6.66;93.87;100397.84;5043472;28;20070;-82
2023/01/13 07:35:03;;;;;;;17.48;4.50;;;;;;;6.67;94.05;100396.91;5034685;28;20123;-83
2023/01/13 07:37:29;;;;;;;26.98;4.75;;;;;;;6.64;93.92;100402.31;5051461;28;20116;-83
2023/01/13 07:39:54;;;;;;;20.40;4.40;;;;;;;6.66;93.61;100402.22;5030797;28;20121;-82
2023/01/13 07:45:13;;;;;;;19.80;4.85;;;;;;;6.63;93.78;100412.88;4995947;28;20056;-83
2023/01/13 07:47:39;;;;;;;20.17;4.53;;;;;;;6.64;93.61;100411.94;5028950;28;20853;-83
2023/01/13 07:50:07;;;;;;;21.80;3.70;;;;;;;6.65;93.78;100417.06;5011658;28;20042;-82
2023/01/13 07:52:35;;;;;;;21.58;4.25;;;;;;;6.60;93.98;100419.16;5045743;28;20140;-83
2023/01/13 07:55:01;;;;;;;22.27;4.90;;;;;;;6.60;94.53;100430.44;5033851;28;20044;-83
2023/01/13 07:57:27;;;;;;;20.90;4.50;;;;;;;6.61;94.51;100431.28;5031032;28;20033;-82
2023/01/13 07:59:54;;;;;;;22.42;4.45;;;;;;;6.59;94.87;100433.16;5015372;28;20119;-83
2023/01/13 08:02:20;;;;;;;25.98;5.32;;;;;;;6.59;94.56;100435.75;5047133;28;20124;-83
2023/01/13 08:04:46;;;;;;;24.25;4.60;;;;;;;6.56;95.35;100439.41;5012520;28;20526;-83
2023/01/13 08:07:11;;;;;;;23.05;4.55;;;;;;;6.56;95.41;100433.34;5022356;28;20120;-83
2023/01/13 08:09:36;;;;;;;23.02;4.60;;;;;;;6.56;95.57;100434.19;5030719;28;20155;-83
2023/01/13 08:14:49;;;;;;;21.67;4.75;;;;;;;6.54;95.87;100446.50;5031002;28;20506;-83
2023/01/13 08:17:23;;;;;;;23.85;4.90;;;;;;;6.55;96.18;100437.75;5030363;28;20120;-83
2023/01/13 08:20:03;;;;;;;19.63;4.55;;;;;;;6.57;96.76;100437.63;5028072;28;20038;-79
2023/01/13 08:22:29;;;;;;;23.25;4.90;;;;;;;6.56;96.62;100434.19;5017616;28;20648;-82
2023/01/13 08:24:59;;;;;;;23.90;4.68;;;;;;;6.57;96.75;100437.63;5028296;28;20116;-82
2023/01/13 08:27:27;;;;;;;25.02;5.13;;;;;;;6.58;96.80;100436.69;5034136;28;20437;-81
2023/01/13 08:29:53;;;;;;;27.83;5.10;;;;;;;6.60;96.89;100440.91;5044659;28;20109;-81
2023/01/13 08:32:21;;;;;;;21.75;5.03;;;;;;;6.61;97.25;100441.72;5029921;28;20128;-82
2023/01/13 08:34:55;;;;;;;24.00;5.15;;;;;;;6.62;96.49;100430.34;5023983;28;20104;-81
2023/01/13 08:37:21;;;;;;;30.95;5.57;;;;;;;6.67;96.88;100436.09;5029865;28;20440;-81
2023/01/13 08:39:47;;;;;;;24.85;4.78;;;;;;;6.70;96.24;100433.28;5010905;28;20041;-83
2023/01/13 08:42:12;;;;;;;26.77;5.45;;;;;;;6.76;96.06;100427.66;5034137;28;20149;-84
2023/01/13 08:44:37;;;;;;;26.25;5.20;;;;;;;6.84;95.72;100435.88;5028804;28;20029;-83
2023/01/13 08:47:04;;;;;;;25.85;5.70;;;;;;;6.94;95.18;100437.88;5026151;28;20116;-83
2023/01/13 08:49:30;;;;;;;27.33;5.38;;;;;;;7.02;95.63;100440.81;5028178;28;20541;-83
2023/01/13 08:51:55;;;;;;;22.65;5.22;;;;;;;7.08;95.23;100432.56;5030716;28;20115;-83
2023/01/13 08:54:21;;;;;;;23.25;5.32;;;;;;;7.11;94.71;100451.50;5012542;28;20030;-84
2023/01/13 08:56:50;;;;;;;25.85;5.93;;;;;;;7.16;94.37;100453.81;5030158;28;20060;-84
2023/01/13 08:59:21;;;;;;;24.45;4.75;;;;;;;7.19;94.78;100458.84;5030346;28;20092;-84
2023/01/13 09:01:47;;;;;;;26.13;5.25;;;;;;;7.25;93.72;100452.41;5030526;28;20059;-84
2023/01/13 09:04:21;;;;;;;27.42;5.60;;;;;;;7.29;93.51;100446.03;5029791;28;20073;-84
2023/01/13 09:06:48;;;;;;;22.13;4.93;;;;;;;7.26;93.66;100460.16;5019751;28;20037;-84
2023/01/13 09:09:14;;;;;;;22.92;5.20;;;;;;;7.27;93.02;100447.91;5001831;28;20505;-83
2023/01/13 09:14:28;;;;;;;29.23;5.60;;;;;;;7.30;92.12;100445.91;5010741;28;20072;-84
2023/01/13 09:16:55;;;;;;;30.42;6.07;;;;;;;7.32;91.65;100449.28;5028197;28;20061;-83
2023/01/13 09:19:20;;;;;;;30.38;5.75;;;;;;;7.36;91.08;100458.59;5012613;28;20037;-84
2023/01/13 09:21:46;;;;;;;29.58;5.28;;;;;;;7.41;91.26;100464.34;5029227;28;20082;-84
2023/01/13 09:24:12;;;;;;;26.38;5.43;;;;;;;7.47;90.84;100471.78;5044125;28;20040;-84
2023/01/13 09:26:38;;;;;;;28.25;5.97;;;;;;;7.54;91.28;100483.53;5011885;28;20332;-78
2023/01/13 09:29:04;;;;;;;22.17;5.07;;;;;;;7.68;90.63;100485.22;5012487;28;20029;-83
2023/01/13 09:31:33;;;;;;;23.52;5.13;;;;;;;7.76;90.15;100500.41;5029669;28;20037;-83
2023/01/13 09:36:45;;;;;;;26.00;5.50;;;;;;;7.78;88.57;100509.00;5030971;28;20076;-78
2023/01/13 09:39:10;;;;;;;27.05;5.65;;;;;;;7.75;89.03;100502.19;5029147;28;20038;-77
2023/01/13 09:44:34;;;;;;;33.22;6.45;;;;;;;7.75;89.65;100498.75;5029556;28;20080;-83
2023/01/13 09:47:02;;;;;;;29.27;6.22;;;;;;;7.74;89.28;100507.53;5030954;28;20447;-83
2023/01/13 09:49:40;;;;;;;26.42;5.85;;;;;;;7.74;89.29;100507.53;5012085;28;20071;-83
2023/01/13 09:52:21;;;;;;;28.83;6.28;;;;;;;7.75;90.39;100509.22;5034324;28;20033;-83
2023/01/13 09:55:17;;;;;;;27.02;5.88;;;;;;;7.79;90.46;100521.16;5039742;28;20037;-83
2023/01/13 09:57:42;;;;;;;24.63;6.18;;;;;;;7.73;89.77;100516.34;5005968;28;20494;-83
2023/01/13 10:00:16;;;;;;;30.45;5.68;;;;;;;7.76;89.21;100524.00;5025424;28;20033;-83
2023/01/13 10:03:09;;;;;;;27.60;5.53;;;;;;;7.77;90.29;100508.16;5039390;28;20093;-83
2023/01/13 10:05:36;;;;;;;;;;;;;;;7.85;91.53;100515.50;5021275;28;20072;-83
2023/01/13 10:08:21;;;;;;;29.92;6.30;;;;;;;7.78;89.93;100520.31;5029089;28;20012;-83
2023/01/13 10:10:56;;;;;;;29.42;6.18;;;;;;;7.80;89.67;100518.44;5017956;28;20037;-83
2023/01/13 10:13:30;;;;;;;29.98;6.10;;;;;;;7.91;89.32;100522.94;5010441;28;20465;-83
2023/01/13 10:16:03;;;;;;;29.85;5.65;;;;;;;8.04;89.22;100530.81;5038627;28;20118;-83
2023/01/13 10:19:07;;;;;;;29.42;5.72;;;;;;;8.17;88.94;100524.63;5028221;28;20037;-83
2023/01/13 10:21:50;;;;;;;;;;;;;;;8.29;90.44;100535.19;4982982;28;20048;-84
2023/01/13 10:24:31;;;;;;;26.70;6.05;;;;;;;8.30;88.37;100532.47;5027461;28;19917;-83
2023/01/13 10:27:17;;;;;;;32.30;6.63;;;;;;;8.28;88.75;100533.50;5011180;28;20076;-83
2023/01/13 10:29:42;;;;;;;34.40;7.68;;;;;;;8.15;90.26;100539.63;5028031;28;20030;-83
2023/01/13 10:32:07;;;;;;;30.10;6.45;;;;;;;8.06;92.82;100544.66;5029446;28;20357;-83
2023/01/13 10:35:00;;;;;;;32.38;6.60;;;;;;;7.99;95.04;100553.84;5025548;28;20029;-78
2023/01/13 10:37:27;;;;;;;25.38;5.55;;;;;;;7.88;93.98;100557.19;5033032;28;20040;-84
2023/01/13 10:39:59;;;;;;;28.20;5.90;;;;;;;7.76;95.17;100573.75;5039048;28;20037;-84
2023/01/13 10:42:31;;;;;;;30.55;6.32;;;;;;;7.66;96.58;100577.91;5047326;28;20123;-83
2023/01/13 10:45:03;;;;;;;23.25;5.68;;;;;;;7.51;98.38;100577.97;5043767;28;20038;-84
2023/01/13 10:47:30;;;;;;;32.08;5.95;;;;;;;7.44;99.09;100584.56;5020657;28;20516;-83
2023/01/13 10:50:15;;;;;;;27.35;6.45;;;;;;;7.35;100.00;100579.91;5000753;28;20065;-84
2023/01/13 10:53:02;;;;;;;33.28;6.22;;;;;;;7.35;100.00;100587.78;5020632;28;20038;-84
2023/01/13 10:55:37;;;;;;;29.15;6.28;;;;;;;7.30;100.00;100587.22;5027432;28;20033;-84
2023/01/13 10:58:21;;;;;;;28.48;6.35;;;;;;;7.29;100.00;100585.56;5018517;28;20055;-84
2023/01/13 11:00:59;;;;;;;26.00;5.40;;;;;;;7.32;100.00;100574.88;5025718;28;20431;-84
2023/01/13 11:03:26;;;;;;;27.40;6.13;;;;;;;7.31;100.00;100573.22;5047171;28;20033;-84
2023/01/13 11:05:58;;;;;;;23.60;6.18;;;;;;;7.29;100.00;100575.09;5038081;28;20445;-83
2023/01/13 11:08:27;;;;;;;28.48;6.15;;;;;;;7.31;100.00;100585.44;5026136;28;20444;-84
2023/01/13 11:10:55;;;;;;;28.23;6.20;;;;;;;7.33;100.00;100580.97;5037849;28;20409;-83
2023/01/13 11:13:34;;;;;;;28.95;5.75;;;;;;;7.35;100.00;100569.44;5035018;28;20052;-84
2023/01/13 11:16:04;;;;;;;27.60;6.32;;;;;;;7.36;99.27;100586.00;5014981;28;20036;-84
2023/01/13 11:19:12;;;;;;;28.75;6.30;;;;;;;7.37;98.60;100562.34;5032773;28;20034;-83
2023/01/13 11:21:56;;;;;;;25.15;5.72;;;;;;;7.37;99.33;100572.81;5022564;28;20124;-79
2023/01/13 11:24:49;;;;;;;33.30;6.32;;;;;;;7.45;99.21;100580.16;5029557;28;20040;-83
2023/01/13 11:27:37;;;;;;;22.85;6.45;;;;;;;7.53;97.72;100590.97;5036768;28;20033;-84
2023/01/13 11:30:14;;;;;;;23.23;5.60;;;;;;;7.60;97.26;100596.63;5017120;28;20032;-83
2023/01/13 11:33:04;;;;;;;24.63;5.63;;;;;;;7.64;96.28;100598.13;5017681;28;20045;-84
2023/01/13 11:35:34;;;;;;;27.48;5.35;;;;;;;7.67;96.92;100596.16;5031585;28;20394;-79
2023/01/13 11:38:33;;;;;;;26.25;5.57;;;;;;;7.71;95.98;100597.63;5015653;28;20038;-84
2023/01/13 11:41:31;;;;;;;26.60;6.43;;;;;;;7.73;96.21;100598.34;5046037;28;20556;-84
2023/01/13 11:44:08;;;;;;;30.88;6.22;;;;;;;7.72;95.32;100611.56;5016415;28;20399;-79
2023/01/13 11:46:34;;;;;;;26.30;5.82;;;;;;;7.74;94.30;100614.91;5024620;28;20489;-79
2023/01/13 11:49:01;;;;;;;26.10;5.68;;;;;;;7.75;94.74;100613.97;5025961;28;20041;-83
2023/01/13 11:51:37;;;;;;;32.05;5.75;;;;;;;7.78;93.62;100625.06;5026791;28;20048;-83
2023/01/13 11:54:11;;;;;;;25.52;6.05;;;;;;;7.77;93.61;100612.91;5038419;28;20029;-84
2023/01/13 11:56:43;;;;;;;26.90;5.93;;;;;;;7.77;93.53;100601.59;5019530;28;20056;-84
2023/01/13 12:00:01;;;;;;;23.05;5.30;;;;;;;7.82;93.38;100615.22;5038913;28;20116;-84
2023/01/13 12:02:42;;;;;;;23.65;5.15;;;;;;;7.84;92.76;100613.34;5023903;28;20038;-83
2023/01/13 12:05:22;;;;;;;23.42;5.30;;;;;;;7.89;91.71;100621.75;5028554;28;20036;-83
2023/01/13 12:08:46;;;;;;;24.55;5.43;;;;;;;7.93;92.23;100627.63;5023558;28;20045;-82
2023/01/13 12:11:14;;;;;;;;;;;;;;;8.00;93.23;100634.97;5010919;28;20029;-83
2023/01/13 12:14:09;;;;;;;20.75;4.97;;;;;;;7.98;91.12;100636.84;5031037;28;19916;-81
2023/01/13 12:16:47;;;;;;;23.33;5.15;;;;;;;7.97;89.77;100643.03;5030471;28;20064;-83
2023/01/13 12:19:19;;;;;;;24.55;5.43;;;;;;;8.00;90.57;100642.81;5013256;28;20029;-83
2023/01/13 12:22:03;;;;;;;20.08;5.03;;;;;;;8.03;90.40;100640.03;5014041;28;20044;-82
2023/01/13 12:24:48;;;;;;;23.98;5.28;;;;;;;8.03;89.68;100653.13;5013435;28;20041;-82
2023/01/13 12:27:33;;;;;;;22.58;5.22;;;;;;;8.05;88.87;100643.38;5012885;28;20547;-83